Time;durP1;ratioP1;P1;durP2;ratioP2;P2;SDS_P1;SDS_P2;PMS_P1;PMS_P2;Temp;Humidity;BMP_temperature;BMP_pressure;BME280_temperature;BME280_humidity;BME280_pressure;Samples;Min_cycle;Max_cycle;Signal;HPM_P1;HPM_P2
2023/04/02 00:00:57;;;;;;;8.40;2.85;;;;;;;;;;4944306;28;20042;-79
2023/04/02 00:03:25;;;;;;;9.68;2.30;;;;;;;;;;4959259;28;20047;-78
2023/04/02 00:05:54;;;;;;;9.35;2.58;;;;;;;;;;4957384;28;20030;-78
2023/04/02 00:08:55;;;;;;;9.48;2.97;;;;;;;;;;4955971;28;20030;-78
2023/04/02 00:11:34;;;;;;;9.45;3.60;;;;;;;;;;4958409;28;20061;-78
2023/04/02 00:14:36;;;;;;;10.23;3.58;;;;;;;;;;4944721;28;20375;-78
2023/04/02 00:17:05;;;;;;;9.68;3.90;;;;;;;;;;4952340;28;20068;-78
2023/04/02 00:19:39;;;;;;;11.82;4.30;;;;;;;;;;4940249;28;20065;-78
2023/04/02 00:22:09;;;;;;;9.13;3.67;;;;;;;;;;4954661;28;20465;-78
2023/04/02 00:24:39;;;;;;;10.68;3.67;;;;;;;;;;4935661;28;20061;-78
2023/04/02 00:27:10;;;;;;;10.77;3.80;;;;;;;;;;4941964;28;20432;-79
2023/04/02 00:29:45;;;;;;;10.13;3.15;;;;;;;;;;4954087;28;20545;-79
2023/04/02 00:32:18;;;;;;;10.95;3.15;;;;;;;;;;4942534;28;20023;-78
2023/04/02 00:34:46;;;;;;;10.85;3.20;;;;;;;;;;4948507;28;20030;-78
2023/04/02 00:37:22;;;;;;;9.32;3.50;;;;;;;;;;4955691;28;20124;-79
2023/04/02 00:39:51;;;;;;;10.25;2.20;;;;;;;;;;4938219;28;20540;-79
2023/04/02 00:42:18;;;;;;;12.38;2.85;;;;;;;;;;4953662;28;20054;-79
2023/04/02 00:44:46;;;;;;;7.05;1.98;;;;;;;;;;4934819;28;20038;-79
2023/04/02 00:47:20;;;;;;;7.60;2.83;;;;;;;;;;4936798;28;20450;-78
2023/04/02 00:49:48;;;;;;;8.52;2.90;;;;;;;;;;4940097;28;20044;-78
2023/04/02 00:52:18;;;;;;;8.18;2.72;;;;;;;;;;4924051;28;20354;-80
2023/04/02 00:54:51;;;;;;;7.57;2.70;;;;;;;;;;4936927;28;20118;-79
2023/04/02 00:57:24;;;;;;;9.07;2.28;;;;;;;;;;4935023;28;20081;-79
2023/04/02 00:59:58;;;;;;;7.47;1.92;;;;;;;;;;4922108;28;20552;-79
2023/04/02 01:02:30;;;;;;;7.65;2.10;;;;;;;;;;4953903;28;20038;-78
2023/04/02 01:05:16;;;;;;;8.43;2.90;;;;;;;;;;4934831;28;20038;-79
2023/04/02 01:08:09;;;;;;;9.98;3.25;;;;;;;;;;4952425;28;20421;-78
2023/04/02 01:10:56;;;;;;;8.13;1.92;;;;;;;;;;4932199;28;20125;-78
2023/04/02 01:13:24;;;;;;;;;;;;;;;;;;4913617;28;20483;-78
2023/04/02 01:15:51;;;;;;;;;;;;;;;;;;4910758;28;20002;-78
2023/04/02 01:18:20;;;;;;;8.07;1.83;;;;;;;;;;4914458;28;20265;-78
2023/04/02 01:21:05;;;;;;;7.20;1.92;;;;;;;;;;4909161;28;20042;-78
2023/04/02 01:23:41;;;;;;;9.27;3.03;;;;;;;;;;4893840;29;20055;-78
2023/04/02 01:26:27;;;;;;;9.65;3.47;;;;;;;;;;4915751;28;20659;-78
2023/04/02 01:28:56;;;;;;;9.73;3.35;;;;;;;;;;4917273;28;20062;-79
2023/04/02 01:31:26;;;;;;;8.88;3.50;;;;;;;;;;4919436;28;20112;-79
2023/04/02 01:33:56;;;;;;;9.55;3.00;;;;;;;;;;4899336;29;20628;-78
2023/04/02 01:36:33;;;;;;;8.85;2.22;;;;;;;;;;4918474;28;20501;-78
2023/04/02 01:39:12;;;;;;;11.18;4.68;;;;;;;;;;4902316;29;20047;-79
2023/04/02 01:41:47;;;;;;;9.25;3.30;;;;;;;;;;4906207;28;20663;-79
2023/04/02 01:44:22;;;;;;;8.98;2.50;;;;;;;;;;4932816;28;20057;-80
2023/04/02 01:46:49;;;;;;;8.32;2.10;;;;;;;;;;4926573;28;20374;-79
2023/04/02 01:49:21;;;;;;;9.73;3.92;;;;;;;;;;4941466;28;20571;-79
2023/04/02 01:51:56;;;;;;;10.85;3.15;;;;;;;;;;4956349;28;20137;-78
2023/04/02 01:54:27;;;;;;;10.23;3.17;;;;;;;;;;4960763;28;20010;-78
2023/04/02 01:57:00;;;;;;;9.55;4.13;;;;;;;;;;4957228;28;20614;-78
2023/04/02 01:59:28;;;;;;;10.95;3.53;;;;;;;;;;4960935;28;20026;-79
2023/04/02 02:02:05;;;;;;;10.05;3.65;;;;;;;;;;4956179;28;20134;-78
2023/04/02 02:04:32;;;;;;;9.25;2.95;;;;;;;;;;4930412;28;20472;-78
2023/04/02 02:07:09;;;;;;;9.88;3.80;;;;;;;;;;4927183;28;20096;-78
2023/04/02 02:09:38;;;;;;;10.82;3.45;;;;;;;;;;4946568;28;20042;-79
2023/04/02 02:12:06;;;;;;;9.45;2.88;;;;;;;;;;4950213;28;20030;-80
2023/04/02 02:14:34;;;;;;;10.15;3.20;;;;;;;;;;4940695;28;20042;-80
2023/04/02 02:17:03;;;;;;;11.68;4.50;;;;;;;;;;4954404;28;20528;-79
2023/04/02 02:19:42;;;;;;;11.88;3.72;;;;;;;;;;4961742;28;20042;-79
2023/04/02 02:22:16;;;;;;;15.60;3.08;;;;;;;;;;4943462;28;20564;-79
2023/04/02 02:24:45;;;;;;;11.68;2.67;;;;;;;;;;4960363;28;20046;-79
2023/04/02 02:27:24;;;;;;;11.75;3.10;;;;;;;;;;4954166;28;20038;-79
2023/04/02 02:30:08;;;;;;;12.45;4.05;;;;;;;;;;4960097;28;20516;-79
2023/04/02 02:32:38;;;;;;;11.55;3.22;;;;;;;;;;4971855;28;20086;-79
2023/04/02 02:35:31;;;;;;;10.73;2.85;;;;;;;;;;4937485;28;20054;-79
2023/04/02 02:38:18;;;;;;;12.70;3.30;;;;;;;;;;4961894;28;20160;-78
2023/04/02 02:40:45;;;;;;;12.70;3.30;;;;;;;;;;4960641;28;20117;-79
2023/04/02 02:43:15;;;;;;;14.02;3.08;;;;;;;;;;4927575;28;20046;-79
2023/04/02 02:45:44;;;;;;;12.13;2.38;;;;;;;;;;4948936;28;20034;-79
2023/04/02 02:48:20;;;;;;;11.82;2.92;;;;;;;;;;4959664;28;20039;-79
2023/04/02 02:50:48;;;;;;;11.13;3.20;;;;;;;;;;4951502;28;20242;-79
2023/04/02 02:53:17;;;;;;;12.73;2.63;;;;;;;;;;4958352;28;20034;-79
2023/04/02 02:55:45;;;;;;;10.68;2.65;;;;;;;;;;4955358;28;20406;-79
2023/04/02 02:58:18;;;;;;;11.70;2.50;;;;;;;;;;4947200;28;20140;-79
2023/04/02 03:00:46;;;;;;;13.55;2.80;;;;;;;;;;4954443;28;20626;-79
2023/04/02 03:03:26;;;;;;;10.80;2.53;;;;;;;;;;4955534;28;20335;-79
2023/04/02 03:06:08;;;;;;;16.25;2.78;;;;;;;;;;4955960;28;20204;-79
2023/04/02 03:08:57;;;;;;;11.25;2.60;;;;;;;;;;4958737;28;20297;-79
2023/04/02 03:11:46;;;;;;;11.10;2.70;;;;;;;;;;4940996;28;20043;-79
2023/04/02 03:14:28;;;;;;;10.18;2.40;;;;;;;;;;4920419;28;20042;-79
2023/04/02 03:17:05;;;;;;;10.77;2.50;;;;;;;;;;4938961;28;20662;-79
2023/04/02 03:19:47;;;;;;;11.90;2.25;;;;;;;;;;4945667;28;20049;-79
2023/04/02 03:22:24;;;;;;;10.27;2.47;;;;;;;;;;4946979;28;20401;-80
2023/04/02 03:25:21;;;;;;;11.45;2.20;;;;;;;;;;4957816;28;20116;-78
2023/04/02 03:27:52;;;;;;;12.02;2.35;;;;;;;;;;4945824;28;20038;-78
2023/04/02 03:30:30;;;;;;;9.32;2.13;;;;;;;;;;4946115;28;20341;-78
2023/04/02 03:33:03;;;;;;;11.07;2.13;;;;;;;;;;4952077;28;20027;-78
2023/04/02 03:35:49;;;;;;;9.07;1.50;;;;;;;;;;4955077;28;20359;-78
2023/04/02 03:38:21;;;;;;;10.98;3.25;;;;;;;;;;4956100;28;20034;-78
2023/04/02 03:41:06;;;;;;;9.18;2.00;;;;;;;;;;4938130;28;20038;-78
2023/04/02 03:43:36;;;;;;;10.85;2.28;;;;;;;;;;4957630;28;20045;-79
2023/04/02 03:46:23;;;;;;;11.88;2.55;;;;;;;;;;4925655;28;20550;-79
2023/04/02 03:48:55;;;;;;;11.00;2.15;;;;;;;;;;4940753;28;20121;-79
2023/04/02 03:51:41;;;;;;;11.05;3.03;;;;;;;;;;4925872;28;20489;-79
2023/04/02 03:54:10;;;;;;;14.13;3.40;;;;;;;;;;4935989;28;20060;-79
2023/04/02 03:56:39;;;;;;;14.60;4.07;;;;;;;;;;4957764;28;20033;-79
2023/04/02 03:59:24;;;;;;;12.98;2.70;;;;;;;;;;4951049;28;20400;-79
2023/04/02 04:02:11;;;;;;;9.50;2.90;;;;;;;;;;4957423;28;20121;-79
2023/04/02 04:04:38;;;;;;;;;;;;;;;;;;4956665;28;20194;-79
2023/04/02 04:07:09;;;;;;;13.65;2.63;;;;;;;;;;4954378;28;19929;-79
2023/04/02 04:09:39;;;;;;;12.07;2.53;;;;;;;;;;4955898;28;20046;-78
2023/04/02 04:12:24;;;;;;;14.88;3.55;;;;;;;;;;4924402;28;20040;-79
2023/04/02 04:15:09;;;;;;;8.65;2.10;;;;;;;;;;4951878;28;20038;-79
2023/04/02 04:18:10;;;;;;;10.93;3.22;;;;;;;;;;4952629;28;20126;-81
2023/04/02 04:20:55;;;;;;;12.48;4.47;;;;;;;;;;4887332;29;20080;-78
2023/04/02 04:23:28;;;;;;;13.70;4.85;;;;;;;;;;4891363;29;20040;-78
2023/04/02 04:26:08;;;;;;;10.23;2.28;;;;;;;;;;4884036;29;20043;-79
2023/04/02 04:29:04;;;;;;;11.75;2.53;;;;;;;;;;4887772;29;20592;-80
2023/04/02 04:31:41;;;;;;;10.75;2.70;;;;;;;;;;4895117;29;20040;-80
2023/04/02 04:34:15;;;;;;;13.93;2.20;;;;;;;;;;4889627;29;20105;-80
2023/04/02 04:36:52;;;;;;;12.75;4.40;;;;;;;;;;4885477;29;20059;-80
2023/04/02 04:39:22;;;;;;;11.50;2.60;;;;;;;;;;4872970;29;21032;-80
2023/04/02 04:41:55;;;;;;;11.63;2.22;;;;;;;;;;4872115;29;20048;-80
2023/04/02 04:44:44;;;;;;;11.57;2.58;;;;;;;;;;4885126;29;20040;-80
2023/04/02 04:47:21;;;;;;;13.55;2.72;;;;;;;;;;4880719;29;20565;-80
2023/04/02 04:49:53;;;;;;;11.75;2.72;;;;;;;;;;4873968;29;20515;-80
2023/04/02 04:52:38;;;;;;;11.40;2.58;;;;;;;;;;4871595;29;20154;-80
2023/04/02 04:55:25;;;;;;;11.43;1.83;;;;;;;;;;4882930;28;20396;-80
2023/04/02 04:57:58;;;;;;;9.65;3.30;;;;;;;;;;4950602;28;20149;-80
2023/04/02 05:00:43;;;;;;;11.35;3.05;;;;;;;;;;4951177;28;20042;-79
2023/04/02 05:03:29;;;;;;;11.68;2.30;;;;;;;;;;4935666;28;20525;-80
2023/04/02 05:06:18;;;;;;;11.88;2.63;;;;;;;;;;4949280;28;20061;-79
2023/04/02 05:09:06;;;;;;;11.75;3.60;;;;;;;;;;4947047;28;20038;-80
2023/04/02 05:11:40;;;;;;;9.93;2.42;;;;;;;;;;4936245;28;20455;-79
2023/04/02 05:14:18;;;;;;;14.65;2.60;;;;;;;;;;4955713;28;20160;-79
2023/04/02 05:16:50;;;;;;;12.52;3.83;;;;;;;;;;4951695;28;20064;-79
2023/04/02 05:19:24;;;;;;;10.32;2.90;;;;;;;;;;4924972;28;20034;-79
2023/04/02 05:21:57;;;;;;;11.57;2.50;;;;;;;;;;4938271;28;20038;-79
2023/04/02 05:24:42;;;;;;;10.25;2.85;;;;;;;;;;4956065;28;20037;-78
2023/04/02 05:27:31;;;;;;;10.63;2.83;;;;;;;;;;4950264;28;20030;-78
2023/04/02 05:30:09;;;;;;;10.43;2.50;;;;;;;;;;4896928;29;20478;-78
2023/04/02 05:32:43;;;;;;;10.48;2.10;;;;;;;;;;4884699;29;20812;-78
2023/04/02 05:35:14;;;;;;;7.53;1.75;;;;;;;;;;4901587;29;20214;-78
2023/04/02 05:37:43;;;;;;;8.77;2.00;;;;;;;;;;4898743;29;20345;-79
2023/04/02 05:40:14;;;;;;;8.95;1.98;;;;;;;;;;4905728;29;20623;-79
2023/04/02 05:42:43;;;;;;;11.13;3.78;;;;;;;;;;4902677;29;20036;-79
2023/04/02 05:45:40;;;;;;;11.05;4.78;;;;;;;;;;4865718;29;20043;-79
2023/04/02 05:48:18;;;;;;;16.27;6.13;;;;;;;;;;4844535;29;20395;-78
2023/04/02 05:50:48;;;;;;;12.48;4.95;;;;;;;;;;4833967;29;20043;-79
2023/04/02 05:53:22;;;;;;;11.98;5.00;;;;;;;;;;4839277;29;20141;-78
2023/04/02 05:56:01;;;;;;;11.77;4.95;;;;;;;;;;4824634;29;20557;-78
2023/04/02 05:58:40;;;;;;;12.48;3.95;;;;;;;;;;4839656;29;20053;-78
2023/04/02 06:01:19;;;;;;;16.60;7.38;;;;;;;;;;4840985;29;20080;-77
2023/04/02 06:03:54;;;;;;;10.75;3.83;;;;;;;;;;4835299;29;20057;-78
2023/04/02 06:06:27;;;;;;;9.50;3.30;;;;;;;;;;4842793;29;20558;-79
2023/04/02 06:08:59;;;;;;;9.82;2.10;;;;;;;;;;4864229;29;20079;-77
2023/04/02 06:11:34;;;;;;;11.05;3.38;;;;;;;;;;4865577;29;20053;-79
2023/04/02 06:14:02;;;;;;;8.82;2.63;;;;;;;;;;4864182;29;20157;-78
2023/04/02 06:16:30;;;;;;;10.77;2.33;;;;;;;;;;4854905;29;20060;-78
2023/04/02 06:18:59;;;;;;;9.57;3.00;;;;;;;;;;4863416;29;20787;-79
2023/04/02 06:21:28;;;;;;;9.95;2.58;;;;;;;;;;4835320;29;20066;-78
2023/04/02 06:24:03;;;;;;;10.52;2.80;;;;;;;;;;4882060;28;20046;-80
2023/04/02 06:26:43;;;;;;;10.32;2.30;;;;;;;;;;4943187;28;20550;-78
2023/04/02 06:29:28;;;;;;;11.07;2.22;;;;;;;;;;4943393;28;20668;-79
2023/04/02 06:31:56;;;;;;;11.48;2.85;;;;;;;;;;4954689;28;20027;-79
2023/04/02 06:34:27;;;;;;;8.85;2.13;;;;;;;;;;4954864;28;20038;-79
2023/04/02 06:37:00;;;;;;;11.18;2.17;;;;;;;;;;4955230;28;20050;-78
2023/04/02 06:39:27;;;;;;;11.40;2.90;;;;;;;;;;4940722;28;20146;-81
2023/04/02 06:42:06;;;;;;;8.50;1.73;;;;;;;;;;4955413;28;20327;-79
2023/04/02 06:44:36;;;;;;;8.57;2.00;;;;;;;;;;4956561;28;20137;-78
2023/04/02 06:47:12;;;;;;;10.18;2.05;;;;;;;;;;4918760;28;20055;-78
2023/04/02 06:49:42;;;;;;;11.23;2.33;;;;;;;;;;4920705;28;20796;-79
2023/04/02 06:52:14;;;;;;;9.85;2.05;;;;;;;;;;4921195;28;20079;-79
2023/04/02 06:54:42;;;;;;;8.80;1.80;;;;;;;;;;4918866;28;20078;-80
2023/04/02 06:57:12;;;;;;;9.05;1.88;;;;;;;;;;4921460;28;20085;-79
2023/04/02 06:59:41;;;;;;;8.68;1.60;;;;;;;;;;4921789;28;20043;-79
2023/04/02 07:02:29;;;;;;;8.73;1.65;;;;;;;;;;4919986;28;20469;-78
2023/04/02 07:05:02;;;;;;;7.07;1.63;;;;;;;;;;4914945;28;20117;-81
2023/04/02 07:07:30;;;;;;;8.25;1.60;;;;;;;;;;4922692;28;20035;-79
2023/04/02 07:09:59;;;;;;;8.20;1.50;;;;;;;;;;4915541;28;20131;-79
2023/04/02 07:12:27;;;;;;;7.50;1.40;;;;;;;;;;4920032;28;20055;-79
2023/04/02 07:14:55;;;;;;;8.23;1.52;;;;;;;;;;4918315;28;20392;-79
2023/04/02 07:17:22;;;;;;;8.50;1.40;;;;;;;;;;4902264;29;20904;-80
2023/04/02 07:19:51;;;;;;;9.38;1.50;;;;;;;;;;4915033;28;20398;-78
2023/04/02 07:22:21;;;;;;;7.22;1.30;;;;;;;;;;4918236;28;20579;-79
2023/04/02 07:24:47;;;;;;;8.65;1.80;;;;;;;;;;4915721;28;20039;-79
2023/04/02 07:27:14;;;;;;;5.90;1.20;;;;;;;;;;4904157;29;20051;-77
2023/04/02 07:29:43;;;;;;;9.07;1.27;;;;;;;;;;4885688;28;20063;-80
2023/04/02 07:32:11;;;;;;;7.57;1.20;;;;;;;;;;4916653;28;20046;-79
2023/04/02 07:34:40;;;;;;;6.90;1.50;;;;;;;;;;4902084;29;20043;-79
2023/04/02 07:37:07;;;;;;;8.13;1.38;;;;;;;;;;4895682;28;20050;-80
2023/04/02 07:39:35;;;;;;;7.53;1.40;;;;;;;;;;4953620;28;20144;-80
2023/04/02 07:42:02;;;;;;;7.00;1.45;;;;;;;;;;4947880;28;20026;-79
2023/04/02 07:44:30;;;;;;;7.80;1.55;;;;;;;;;;4950704;28;20435;-80
2023/04/02 07:46:58;;;;;;;6.70;1.25;;;;;;;;;;4940089;28;20043;-80
2023/04/02 07:49:24;;;;;;;5.63;1.10;;;;;;;;;;4957194;28;20035;-79
2023/04/02 07:51:53;;;;;;;8.57;1.90;;;;;;;;;;4932336;28;20229;-79
2023/04/02 07:54:22;;;;;;;7.97;2.40;;;;;;;;;;4957959;28;20049;-79
2023/04/02 07:56:51;;;;;;;9.55;3.08;;;;;;;;;;4953822;28;20154;-79
2023/04/02 07:59:17;;;;;;;10.10;2.45;;;;;;;;;;4956683;28;20374;-78
2023/04/02 08:01:46;;;;;;;9.38;2.40;;;;;;;;;;4951181;28;20495;-79
2023/04/02 08:04:22;;;;;;;8.30;1.50;;;;;;;;;;4942109;28;20033;-81
2023/04/02 08:06:51;;;;;;;5.47;1.10;;;;;;;;;;4927325;28;20141;-80
2023/04/02 08:09:20;;;;;;;5.03;1.35;;;;;;;;;;4955230;28;20853;-80
2023/04/02 08:11:47;;;;;;;7.70;1.40;;;;;;;;;;4938438;28;20066;-81
2023/04/02 08:14:15;;;;;;;4.63;1.20;;;;;;;;;;4937185;28;20042;-80
2023/04/02 08:16:49;;;;;;;4.82;1.30;;;;;;;;;;4921919;28;20125;-79
2023/04/02 08:19:18;;;;;;;6.47;1.30;;;;;;;;;;4905522;28;20050;-81
2023/04/02 08:21:49;;;;;;;6.53;1.30;;;;;;;;;;4921190;28;20034;-80
2023/04/02 08:24:18;;;;;;;5.40;1.20;;;;;;;;;;4922302;28;20730;-79
2023/04/02 08:26:52;;;;;;;6.15;1.35;;;;;;;;;;4920918;28;20073;-79
2023/04/02 08:29:25;;;;;;;5.32;1.10;;;;;;;;;;4939633;28;20105;-80
2023/04/02 08:31:53;;;;;;;5.78;1.20;;;;;;;;;;4932891;28;20034;-80
2023/04/02 08:34:20;;;;;;;6.53;1.20;;;;;;;;;;4938038;28;20113;-80
2023/04/02 08:36:48;;;;;;;4.97;1.20;;;;;;;;;;4920346;28;20161;-80
2023/04/02 08:39:16;;;;;;;6.15;1.55;;;;;;;;;;4923717;28;20052;-78
2023/04/02 08:41:47;;;;;;;7.50;1.50;;;;;;;;;;4933821;28;20396;-79
2023/04/02 08:44:22;;;;;;;8.18;2.00;;;;;;;;;;4922297;28;20091;-79
2023/04/02 08:46:56;;;;;;;6.10;1.60;;;;;;;;;;4934857;28;20104;-79
2023/04/02 08:49:42;;;;;;;7.78;1.77;;;;;;;;;;4940597;28;20520;-81
2023/04/02 08:52:26;;;;;;;7.22;1.65;;;;;;;;;;4936963;28;20501;-79
2023/04/02 08:54:55;;;;;;;6.97;1.70;;;;;;;;;;4932206;28;20145;-80
2023/04/02 08:57:45;;;;;;;6.45;1.40;;;;;;;;;;4938102;28;20065;-80
2023/04/02 09:00:30;;;;;;;6.13;1.50;;;;;;;;;;4935431;28;20042;-79
2023/04/02 09:03:23;;;;;;;6.28;1.10;;;;;;;;;;4944303;28;20455;-79
2023/04/02 09:05:55;;;;;;;7.10;1.50;;;;;;;;;;4944936;28;20046;-79
2023/04/02 09:08:24;;;;;;;6.10;1.23;;;;;;;;;;4956661;28;20787;-79
2023/04/02 09:11:09;;;;;;;7.90;1.60;;;;;;;;;;4936642;28;20042;-80
2023/04/02 09:13:40;;;;;;;5.57;1.73;;;;;;;;;;4956515;28;20046;-80
2023/04/02 09:16:11;;;;;;;5.65;1.23;;;;;;;;;;4941982;28;20118;-80
2023/04/02 09:18:42;;;;;;;6.80;1.52;;;;;;;;;;4951641;28;20042;-80
2023/04/02 09:21:27;;;;;;;7.03;1.70;;;;;;;;;;4941575;28;20061;-80
2023/04/02 09:23:54;;;;;;;9.35;1.67;;;;;;;;;;4955196;28;20030;-80
2023/04/02 09:26:23;;;;;;;5.07;1.20;;;;;;;;;;4954903;28;20612;-80
2023/04/02 09:28:56;;;;;;;8.80;2.55;;;;;;;;;;4951760;28;20038;-80
2023/04/02 09:31:29;;;;;;;8.32;1.42;;;;;;;;;;4958548;28;20070;-80
2023/04/02 09:33:56;;;;;;;7.00;1.95;;;;;;;;;;4939118;28;20437;-79
2023/04/02 09:36:36;;;;;;;6.68;1.73;;;;;;;;;;4959723;28;20145;-80
2023/04/02 09:39:15;;;;;;;6.22;1.60;;;;;;;;;;4950454;28;20045;-80
2023/04/02 09:41:44;;;;;;;6.72;1.45;;;;;;;;;;4939812;28;20516;-79
2023/04/02 09:44:26;;;;;;;6.38;1.40;;;;;;;;;;4942005;28;20034;-80
2023/04/02 09:47:06;;;;;;;5.03;1.30;;;;;;;;;;4927642;28;20090;-80
2023/04/02 09:49:36;;;;;;;7.63;1.73;;;;;;;;;;4965070;28;20033;-79
2023/04/02 09:52:22;;;;;;;7.90;1.90;;;;;;;;;;4943947;28;20910;-78
2023/04/02 09:55:10;;;;;;;8.27;1.63;;;;;;;;;;4959168;28;20518;-80
2023/04/02 09:57:39;;;;;;;6.25;1.58;;;;;;;;;;4944678;28;20116;-79
2023/04/02 10:00:15;;;;;;;5.95;1.42;;;;;;;;;;4958938;28;20034;-78
2023/04/02 10:02:43;;;;;;;7.13;1.40;;;;;;;;;;4955535;28;20485;-80
2023/04/02 10:05:18;;;;;;;8.55;2.10;;;;;;;;;;4955080;28;20559;-79
2023/04/02 10:07:49;;;;;;;6.00;1.65;;;;;;;;;;4940470;28;20050;-80
2023/04/02 10:10:22;;;;;;;9.27;2.63;;;;;;;;;;4960159;28;20457;-79
2023/04/02 10:12:56;;;;;;;8.27;1.90;;;;;;;;;;4959384;28;20062;-80
2023/04/02 10:15:44;;;;;;;6.53;1.40;;;;;;;;;;4931310;28;20329;-79
2023/04/02 10:18:22;;;;;;;4.78;1.15;;;;;;;;;;4958183;28;20699;-79
2023/04/02 10:20:52;;;;;;;8.65;1.50;;;;;;;;;;4956737;28;20026;-79
2023/04/02 10:23:19;;;;;;;6.47;1.20;;;;;;;;;;4960848;28;20034;-79
2023/04/02 10:25:54;;;;;;;8.52;1.80;;;;;;;;;;4953755;28;20456;-80
2023/04/02 10:28:45;;;;;;;6.75;1.63;;;;;;;;;;4942335;28;20126;-80
2023/04/02 10:31:18;;;;;;;6.70;1.50;;;;;;;;;;4947899;28;20037;-80
2023/04/02 10:33:50;;;;;;;4.82;1.20;;;;;;;;;;4954953;28;20035;-80
2023/04/02 10:36:39;;;;;;;6.53;1.30;;;;;;;;;;4959463;28;20043;-78
2023/04/02 10:39:33;;;;;;;6.47;1.50;;;;;;;;;;4884654;29;20142;-78
2023/04/02 10:42:20;;;;;;;7.10;1.35;;;;;;;;;;4879579;29;20059;-79
2023/04/02 10:44:54;;;;;;;7.30;1.50;;;;;;;;;;4881084;29;20159;-78
2023/04/02 10:47:46;;;;;;;6.25;1.48;;;;;;;;;;4881503;29;20044;-79
2023/04/02 10:50:39;;;;;;;10.50;1.92;;;;;;;;;;4881020;29;20140;-77
2023/04/02 10:53:20;;;;;;;7.78;1.50;;;;;;;;;;4866164;29;20040;-77
2023/04/02 10:55:56;;;;;;;7.53;1.40;;;;;;;;;;4847654;29;20507;-76
2023/04/02 10:58:27;;;;;;;6.93;1.50;;;;;;;;;;4867154;29;20040;-77
2023/04/02 11:01:12;;;;;;;9.77;2.10;;;;;;;;;;4864809;29;20570;-76
2023/04/02 11:03:57;;;;;;;9.38;1.83;;;;;;;;;;4882080;29;20044;-76
2023/04/02 11:06:47;;;;;;;7.57;1.55;;;;;;;;;;4871647;29;20037;-78
2023/04/02 11:09:26;;;;;;;6.97;1.40;;;;;;;;;;4870460;29;20052;-79
2023/04/02 11:11:57;;;;;;;6.05;1.17;;;;;;;;;;4868122;29;20403;-79
2023/04/02 11:14:27;;;;;;;6.43;1.30;;;;;;;;;;4870705;29;20366;-78
2023/04/02 11:17:03;;;;;;;9.60;1.67;;;;;;;;;;4932888;28;20133;-78
2023/04/02 11:19:32;;;;;;;9.10;1.65;;;;;;;;;;4930128;28;20038;-78
2023/04/02 11:22:00;;;;;;;8.88;1.70;;;;;;;;;;4936519;28;20264;-78
2023/04/02 11:24:37;;;;;;;6.47;1.20;;;;;;;;;;4957864;28;20030;-78
2023/04/02 11:27:24;;;;;;;7.90;1.30;;;;;;;;;;4942742;28;20438;-77
2023/04/02 11:30:14;;;;;;;6.95;1.35;;;;;;;;;;4951764;28;20073;-76
2023/04/02 11:32:42;;;;;;;6.00;1.50;;;;;;;;;;4940325;28;20117;-78
2023/04/02 11:35:28;;;;;;;6.93;1.23;;;;;;;;;;4942736;28;20041;-77
2023/04/02 11:37:57;;;;;;;6.13;1.17;;;;;;;;;;4950224;28;20043;-78
2023/04/02 11:40:43;;;;;;;7.95;2.00;;;;;;;;;;4956394;28;20491;-79
2023/04/02 11:43:30;;;;;;;6.45;1.20;;;;;;;;;;4951930;28;20030;-79
2023/04/02 11:45:59;;;;;;;6.03;1.73;;;;;;;;;;4954578;28;20779;-80
2023/04/02 11:48:27;;;;;;;7.40;1.90;;;;;;;;;;4926128;28;20467;-80
2023/04/02 11:50:55;;;;;;;8.00;2.55;;;;;;;;;;4951815;28;20026;-79
2023/04/02 11:53:30;;;;;;;8.13;2.28;;;;;;;;;;4954708;28;20033;-79
2023/04/02 11:56:15;;;;;;;8.98;2.00;;;;;;;;;;4934957;28;20039;-72
2023/04/02 11:59:02;;;;;;;8.17;2.00;;;;;;;;;;4956950;28;20042;-81
2023/04/02 12:01:48;;;;;;;6.28;1.50;;;;;;;;;;4955714;28;20054;-83
2023/04/02 12:04:34;;;;;;;6.70;1.52;;;;;;;;;;4958828;28;20268;-81
2023/04/02 12:07:21;;;;;;;7.75;1.70;;;;;;;;;;4955495;28;20918;-81
2023/04/02 12:09:50;;;;;;;7.43;1.92;;;;;;;;;;4953349;28;20030;-81
2023/04/02 12:12:36;;;;;;;6.57;1.50;;;;;;;;;;4935866;28;20129;-81
2023/04/02 12:15:07;;;;;;;10.55;1.60;;;;;;;;;;4956226;28;20034;-81
2023/04/02 12:17:39;;;;;;;8.77;1.83;;;;;;;;;;4956155;28;20468;-81
2023/04/02 12:20:24;;;;;;;7.35;2.00;;;;;;;;;;4960182;28;20161;-81
2023/04/02 12:22:52;;;;;;;8.02;1.75;;;;;;;;;;4959744;28;20277;-82
2023/04/02 12:25:33;;;;;;;8.40;1.73;;;;;;;;;;4944661;28;20644;-82
2023/04/02 12:28:17;;;;;;;7.30;1.98;;;;;;;;;;4954794;28;20026;-81
2023/04/02 12:30:47;;;;;;;10.35;2.30;;;;;;;;;;4934138;28;20466;-80
2023/04/02 12:33:20;;;;;;;8.07;2.15;;;;;;;;;;4946749;28;20816;-81
2023/04/02 12:35:47;;;;;;;9.25;1.70;;;;;;;;;;4952199;28;20111;-82
2023/04/02 12:38:28;;;;;;;6.32;1.50;;;;;;;;;;4933383;28;20807;-82
2023/04/02 12:40:57;;;;;;;9.95;1.50;;;;;;;;;;4956920;28;20064;-81
2023/04/02 12:43:29;;;;;;;7.55;1.60;;;;;;;;;;4960437;28;20034;-80
2023/04/02 12:46:07;;;;;;;7.72;1.75;;;;;;;;;;4952521;28;20030;-81
2023/04/02 12:48:36;;;;;;;7.05;1.58;;;;;;;;;;4954032;28;20042;-81
2023/04/02 12:51:05;;;;;;;8.32;1.40;;;;;;;;;;4955918;28;20038;-81
2023/04/02 12:53:35;;;;;;;5.95;1.40;;;;;;;;;;4954646;28;20053;-81
2023/04/02 12:56:04;;;;;;;9.38;2.13;;;;;;;;;;4949443;28;20117;-82
2023/04/02 12:58:43;;;;;;;8.98;2.00;;;;;;;;;;4940952;28;20479;-82
2023/04/02 13:01:17;;;;;;;8.63;1.90;;;;;;;;;;4940543;28;20038;-81
2023/04/02 13:03:59;;;;;;;7.77;1.50;;;;;;;;;;4951518;28;20593;-81
2023/04/02 13:06:29;;;;;;;6.22;1.40;;;;;;;;;;4932974;28;20232;-81
2023/04/02 13:08:59;;;;;;;7.28;1.63;;;;;;;;;;4969782;28;20171;-81
2023/04/02 13:11:40;;;;;;;7.00;1.65;;;;;;;;;;4938491;28;20038;-81
2023/04/02 13:14:15;;;;;;;5.50;1.38;;;;;;;;;;4959815;28;20033;-82
2023/04/02 13:16:42;;;;;;;7.45;1.40;;;;;;;;;;4943596;28;20042;-82
2023/04/02 13:19:30;;;;;;;5.57;1.25;;;;;;;;;;4961518;28;20026;-82
2023/04/02 13:22:01;;;;;;;6.82;1.40;;;;;;;;;;4953499;28;20041;-81
2023/04/02 13:24:30;;;;;;;5.22;1.48;;;;;;;;;;4961925;28;20033;-81
2023/04/02 13:26:57;;;;;;;6.25;1.23;;;;;;;;;;4957135;28;20050;-81
2023/04/02 13:29:35;;;;;;;5.60;1.20;;;;;;;;;;4946557;28;20121;-81
2023/04/02 13:32:06;;;;;;;5.38;1.40;;;;;;;;;;4948978;28;20105;-82
2023/04/02 13:34:34;;;;;;;3.88;1.10;;;;;;;;;;4951050;28;20209;-80
2023/04/02 13:37:02;;;;;;;5.38;1.10;;;;;;;;;;4957808;28;20057;-81
2023/04/02 13:39:31;;;;;;;5.95;1.17;;;;;;;;;;4960477;28;20050;-81
2023/04/02 13:42:02;;;;;;;7.70;1.30;;;;;;;;;;4938286;28;20035;-81
2023/04/02 13:44:39;;;;;;;7.28;1.13;;;;;;;;;;4960586;28;20030;-81
2023/04/02 13:47:11;;;;;;;7.10;1.42;;;;;;;;;;4961382;28;20816;-81
2023/04/02 13:49:39;;;;;;;5.03;0.90;;;;;;;;;;4966722;28;20031;-81
2023/04/02 13:52:14;;;;;;;5.25;1.00;;;;;;;;;;4959479;28;20402;-81
2023/04/02 13:54:53;;;;;;;5.32;1.05;;;;;;;;;;4941339;28;20035;-82
2023/04/02 13:57:20;;;;;;;6.72;1.70;;;;;;;;;;4962210;28;20031;-81
2023/04/02 13:59:48;;;;;;;6.82;1.40;;;;;;;;;;4955857;28;20035;-82
2023/04/02 14:02:24;;;;;;;6.20;1.17;;;;;;;;;;4945650;28;20145;-82
2023/04/02 14:05:10;;;;;;;7.82;1.20;;;;;;;;;;4955141;28;20042;-82
2023/04/02 14:07:46;;;;;;;7.93;1.42;;;;;;;;;;4957714;28;20034;-80
2023/04/02 14:10:32;;;;;;;6.60;1.38;;;;;;;;;;4941931;28;20031;-81
2023/04/02 14:13:20;;;;;;;7.18;1.23;;;;;;;;;;4938087;28;20035;-81
2023/04/02 14:16:09;;;;;;;4.68;0.95;;;;;;;;;;4938278;28;20754;-82
2023/04/02 14:18:56;;;;;;;4.95;1.27;;;;;;;;;;4942462;28;20428;-82
2023/04/02 14:21:34;;;;;;;8.57;1.23;;;;;;;;;;4943512;28;20587;-81
2023/04/02 14:24:19;;;;;;;4.78;1.15;;;;;;;;;;4933908;28;20042;-82
2023/04/02 14:27:04;;;;;;;8.55;1.65;;;;;;;;;;4953971;28;20036;-81
2023/04/02 14:29:50;;;;;;;7.20;1.27;;;;;;;;;;4945380;28;20081;-82
2023/04/02 14:32:25;;;;;;;6.45;1.75;;;;;;;;;;4956288;28;20047;-81
2023/04/02 14:35:27;;;;;;;4.15;1.20;;;;;;;;;;4960612;28;20037;-81
2023/04/02 14:38:19;;;;;;;4.63;1.27;;;;;;;;;;4918071;28;20500;-82
2023/04/02 14:41:10;;;;;;;6.63;1.23;;;;;;;;;;4959163;28;20034;-81
2023/04/02 14:44:17;;;;;;;4.72;0.90;;;;;;;;;;4958720;28;20046;-81
2023/04/02 14:46:45;;;;;;;3.53;0.98;;;;;;;;;;4943336;28;20411;-82
2023/04/02 14:49:48;;;;;;;4.38;1.08;;;;;;;;;;4962671;28;20493;-82
2023/04/02 14:52:17;;;;;;;2.78;0.70;;;;;;;;;;4961100;28;20039;-81
2023/04/02 14:54:51;;;;;;;7.50;1.90;;;;;;;;;;4944136;28;20465;-82
2023/04/02 14:57:35;;;;;;;6.32;1.70;;;;;;;;;;4962997;28;20049;-83
2023/04/02 15:00:19;;;;;;;3.53;1.30;;;;;;;;;;4958738;28;20625;-81
2023/04/02 15:02:50;;;;;;;4.65;1.10;;;;;;;;;;4963621;28;20034;-82
2023/04/02 15:05:20;;;;;;;4.55;1.10;;;;;;;;;;4962345;28;20230;-82
2023/04/02 15:07:49;;;;;;;4.30;0.80;;;;;;;;;;4960852;28;20038;-83
2023/04/02 15:10:36;;;;;;;4.88;1.00;;;;;;;;;;4950874;28;20061;-82
2023/04/02 15:13:08;;;;;;;4.20;0.90;;;;;;;;;;4964166;28;20045;-82
2023/04/02 15:15:55;;;;;;;3.85;0.82;;;;;;;;;;4939616;28;20038;-81
2023/04/02 15:18:24;;;;;;;2.75;0.60;;;;;;;;;;4953386;28;20038;-83
2023/04/02 15:21:31;;;;;;;4.72;0.70;;;;;;;;;;4961965;28;20094;-81
2023/04/02 15:24:18;;;;;;;2.45;0.60;;;;;;;;;;4935051;28;20073;-82
2023/04/02 15:26:50;;;;;;;4.40;0.55;;;;;;;;;;4965313;28;20023;-81
2023/04/02 15:29:37;;;;;;;3.10;0.60;;;;;;;;;;4964386;28;20073;-81
2023/04/02 15:32:18;;;;;;;3.38;0.73;;;;;;;;;;4964208;28;20679;-82